createdAt,value
2019-05-09T04:00:54.633Z,991.49
2019-05-09T04:01:54.479Z,991.41
2019-05-09T04:03:48.155Z,991.42
2019-05-09T04:04:47.615Z,991.44
2019-05-09T04:06:39.722Z,991.46
2019-05-09T04:07:39.586Z,991.47
2019-05-09T04:09:32.249Z,991.45
2019-05-09T04:10:32.146Z,991.45
2019-05-09T04:12:24.835Z,991.50
2019-05-09T04:13:24.695Z,991.49
2019-05-09T04:15:19.125Z,991.48
2019-05-09T04:16:19.122Z,991.46
2019-05-09T04:18:09.939Z,991.45
2019-05-09T04:19:09.808Z,991.51
2019-05-09T04:21:02.517Z,991.45
2019-05-09T04:22:02.578Z,991.48
2019-05-09T04:23:58.269Z,991.46
2019-05-09T04:24:57.639Z,991.49
2019-05-09T04:26:48.650Z,991.53
2019-05-09T04:27:48.514Z,991.53
2019-05-09T04:29:41.307Z,991.57
2019-05-09T04:30:41.061Z,991.57
2019-05-09T04:32:33.756Z,991.62
2019-05-09T04:33:33.622Z,991.64
2019-05-09T04:35:27.943Z,991.66
2019-05-09T04:36:27.342Z,991.68
2019-05-09T04:38:18.866Z,991.70
2019-05-09T04:39:23.382Z,991.72
2019-05-09T04:41:18.390Z,991.68
2019-05-09T04:42:12.301Z,991.69
2019-05-09T04:44:13.340Z,991.66
2019-05-09T04:45:09.564Z,991.66
2019-05-09T04:46:59.857Z,991.65
2019-05-09T04:47:57.800Z,991.67
2019-05-09T04:49:50.081Z,991.68
2019-05-09T04:50:49.963Z,991.70
2019-05-09T04:52:42.657Z,991.76
2019-05-09T04:53:42.529Z,991.74
2019-05-09T04:55:35.203Z,991.74
2019-05-09T04:56:35.080Z,991.77
2019-05-09T04:58:27.775Z,991.78
2019-05-09T04:59:28.392Z,991.82
2019-05-09T05:01:20.363Z,991.84
2019-05-09T05:02:20.198Z,991.80
2019-05-09T05:04:12.891Z,991.78
2019-05-09T05:05:12.780Z,991.80
2019-05-09T05:07:07.485Z,991.93
2019-05-09T05:08:07.475Z,991.91
2019-05-09T05:09:58.016Z,991.91
2019-05-09T05:10:58.283Z,991.91
2019-05-09T05:12:50.588Z,991.95
2019-05-09T05:13:50.442Z,991.92
2019-05-09T05:15:43.119Z,991.99
2019-05-09T05:16:43.028Z,991.98
2019-05-09T05:18:37.397Z,992.04
2019-05-09T05:19:38.197Z,991.99
2019-05-09T05:21:28.657Z,992.02
2019-05-09T05:22:28.446Z,992.02
2019-05-09T05:24:20.822Z,992.04
2019-05-09T05:25:20.691Z,991.98
2019-05-09T05:27:13.348Z,992.02
2019-05-09T05:28:13.250Z,992.04
2019-05-09T05:30:07.550Z,991.97
2019-05-09T05:31:07.387Z,991.96
2019-05-09T05:32:58.456Z,991.98
2019-05-09T05:33:58.346Z,991.96
2019-05-09T05:35:51.032Z,991.95
2019-05-09T05:36:50.923Z,991.94
2019-05-09T05:38:43.612Z,991.94
2019-05-09T05:39:43.467Z,991.98
2019-05-09T05:41:37.792Z,991.98
2019-05-09T05:42:38.567Z,991.96
2019-05-09T05:44:29.625Z,992.00
2019-05-09T05:45:28.665Z,991.99
2019-05-09T05:47:21.306Z,992.01
2019-05-09T05:48:21.175Z,992.00
2019-05-09T05:50:13.914Z,992.00
2019-05-09T05:51:13.802Z,992.08
2019-05-09T05:53:07.954Z,992.04
2019-05-09T05:54:07.761Z,992.10
2019-05-09T05:55:59.059Z,992.07
2019-05-09T05:56:58.930Z,992.06
2019-05-09T05:58:51.588Z,992.12
2019-05-09T05:59:51.480Z,992.19
2019-05-09T06:01:44.174Z,992.26
2019-05-09T06:02:44.057Z,992.23
2019-05-09T06:04:38.144Z,992.24
2019-05-09T06:05:38.322Z,992.21
2019-05-09T06:07:29.296Z,992.19
2019-05-09T06:08:29.189Z,992.20
2019-05-09T06:10:21.838Z,992.17
2019-05-09T06:11:21.725Z,992.17
2019-05-09T06:13:14.420Z,992.18
2019-05-09T06:14:14.295Z,992.15
2019-05-09T06:16:08.580Z,992.16
2019-05-09T06:17:07.854Z,992.21
2019-05-09T06:18:59.534Z,992.17
2019-05-09T06:19:59.418Z,992.10
2019-05-09T06:21:52.532Z,992.14
2019-05-09T06:22:51.975Z,992.15
2019-05-09T06:24:44.662Z,992.14
2019-05-09T06:25:44.558Z,992.22
2019-05-09T06:27:37.637Z,992.26
2019-05-09T06:28:37.686Z,992.51
2019-05-09T06:30:29.778Z,993.08
2019-05-09T06:31:29.673Z,993.16
2019-05-09T06:33:22.357Z,993.17
2019-05-09T06:34:22.236Z,993.21
2019-05-09T06:36:14.936Z,993.23
2019-05-09T06:37:14.818Z,993.25
2019-05-09T06:39:08.298Z,993.31
2019-05-09T06:40:08.105Z,993.24
2019-05-09T06:42:00.107Z,993.29
2019-05-09T06:43:00.300Z,993.28
2019-05-09T06:44:52.678Z,993.26
2019-05-09T06:45:52.569Z,993.31
2019-05-09T06:47:45.268Z,993.30
2019-05-09T06:48:45.161Z,993.31
2019-05-09T06:50:37.964Z,993.32
2019-05-09T06:51:38.713Z,993.32
2019-05-09T06:53:30.997Z,993.26
2019-05-09T06:54:30.879Z,993.32
2019-05-09T06:56:23.597Z,993.30
2019-05-09T06:57:23.490Z,993.30
2019-05-09T06:59:16.187Z,993.31
2019-05-09T07:00:17.832Z,993.34
2019-05-09T07:02:08.800Z,993.29
2019-05-09T07:03:08.686Z,993.27
2019-05-09T07:05:01.382Z,993.33
2019-05-09T07:06:01.281Z,993.33
2019-05-09T07:07:54.003Z,993.33
2019-05-09T07:08:53.882Z,993.37
2019-05-09T07:10:48.372Z,993.38
2019-05-09T07:11:48.646Z,993.40
2019-05-09T07:13:39.199Z,993.43
2019-05-09T07:14:41.657Z,993.35
2019-05-09T07:16:31.789Z,993.34
2019-05-09T07:17:32.146Z,993.32
2019-05-09T07:19:24.402Z,993.33
2019-05-09T07:20:24.299Z,993.36
2019-05-09T07:22:18.496Z,993.30
2019-05-09T07:23:17.774Z,993.28
2019-05-09T07:25:10.974Z,993.25
2019-05-09T07:26:09.516Z,993.27
2019-05-09T07:28:02.229Z,993.22
2019-05-09T07:29:02.120Z,993.21
2019-05-09T07:30:57.216Z,993.23
2019-05-09T07:31:54.729Z,993.19
2019-05-09T07:33:47.843Z,993.12
2019-05-09T07:34:47.536Z,993.23
2019-05-09T07:36:40.043Z,993.23
2019-05-09T07:37:39.950Z,992.94
2019-05-09T07:39:32.663Z,993.46
2019-05-09T07:40:32.549Z,992.89
2019-05-09T07:42:25.255Z,992.90
2019-05-09T07:43:25.156Z,992.34
2019-05-09T07:45:18.378Z,992.41
2019-05-09T07:46:18.267Z,992.53
2019-05-09T07:48:10.954Z,992.33
2019-05-09T07:49:10.863Z,992.62
2019-05-09T07:51:03.608Z,992.77
2019-05-09T07:52:06.642Z,992.47
2019-05-09T07:53:58.683Z,992.38
2019-05-09T07:54:58.015Z,992.31
2019-05-09T07:56:48.773Z,992.37
2019-05-09T07:57:54.968Z,992.61
2019-05-09T07:59:41.386Z,992.77
2019-05-09T08:00:41.261Z,992.60
2019-05-09T08:02:34.442Z,992.45
2019-05-09T08:03:34.349Z,992.27
2019-05-09T08:05:27.972Z,992.24
2019-05-09T08:06:28.711Z,992.23
2019-05-09T08:08:19.623Z,992.31
2019-05-09T08:09:19.527Z,992.36
2019-05-09T08:11:12.228Z,992.46
2019-05-09T08:12:12.111Z,992.36
2019-05-09T08:14:04.824Z,992.40
2019-05-09T08:15:13.687Z,993.10
2019-05-09T08:16:58.058Z,992.97
2019-05-09T08:17:59.052Z,992.68
2019-05-09T08:19:50.000Z,992.89
2019-05-09T08:20:49.884Z,992.39
2019-05-09T08:22:50.656Z,992.98
2019-05-09T08:23:42.471Z,993.02
2019-05-09T08:25:35.184Z,992.58
2019-05-09T08:26:35.086Z,992.54
2019-05-09T08:28:28.237Z,992.50
2019-05-09T08:29:28.241Z,992.35
2019-05-09T08:31:20.387Z,992.35
2019-05-09T08:32:20.263Z,992.18
2019-05-09T08:34:12.978Z,992.15
2019-05-09T08:35:12.843Z,992.17
2019-05-09T08:37:08.099Z,992.24
2019-05-09T08:38:08.293Z,992.26
2019-05-09T08:39:58.650Z,992.31
2019-05-09T08:40:58.928Z,992.32
2019-05-09T08:42:51.207Z,992.28
2019-05-09T08:43:51.132Z,992.20
2019-05-09T08:45:43.810Z,992.18
2019-05-09T08:46:43.745Z,992.12
2019-05-09T08:48:37.811Z,992.17
2019-05-09T08:49:37.436Z,992.28
2019-05-09T08:51:36.952Z,992.20
2019-05-09T08:52:28.901Z,992.21
2019-05-09T08:54:21.549Z,992.18
2019-05-09T08:55:21.444Z,992.15
2019-05-09T08:57:14.147Z,992.11
2019-05-09T08:58:14.049Z,992.10
2019-05-09T09:00:08.152Z,992.12
2019-05-09T09:01:10.233Z,992.13
2019-05-09T09:02:59.314Z,992.09
2019-05-09T09:03:59.191Z,992.02
2019-05-09T09:05:51.878Z,992.01
2019-05-09T09:06:51.775Z,992.06
2019-05-09T09:08:44.475Z,992.07
2019-05-09T09:09:44.357Z,992.01
2019-05-09T09:11:38.519Z,992.03
2019-05-09T09:12:38.460Z,992.03
2019-05-09T09:14:29.630Z,992.05
2019-05-09T09:15:55.766Z,992.02
2019-05-09T09:17:22.251Z,992.06
2019-05-09T09:18:22.116Z,992.11
2019-05-09T09:20:14.800Z,992.07
2019-05-09T09:21:14.694Z,992.05
2019-05-09T09:23:09.004Z,992.05
2019-05-09T09:24:08.729Z,992.05
2019-05-09T09:25:59.973Z,992.02
2019-05-09T09:26:59.868Z,991.97
2019-05-09T09:28:52.574Z,991.95
2019-05-09T09:29:52.451Z,991.93
2019-05-09T09:31:45.169Z,991.95
2019-05-09T09:32:47.727Z,991.99
2019-05-09T09:34:38.119Z,992.02
2019-05-09T09:35:38.384Z,992.04
2019-05-09T09:37:45.128Z,992.03
2019-05-09T09:38:30.224Z,991.99
2019-05-09T09:40:22.910Z,991.94
2019-05-09T09:41:22.812Z,991.90
2019-05-09T09:43:17.655Z,991.98
2019-05-09T09:44:17.809Z,991.98
2019-05-09T09:46:14.388Z,991.96
2019-05-09T09:47:07.982Z,991.99
2019-05-09T09:49:00.686Z,991.98
2019-05-09T09:50:00.680Z,992.01
2019-05-09T09:51:53.265Z,991.95
2019-05-09T09:52:53.145Z,991.91
2019-05-09T09:54:48.057Z,991.92
2019-05-09T09:55:47.687Z,991.97
2019-05-09T09:57:38.448Z,991.89
2019-05-09T09:58:39.056Z,991.90
2019-05-09T10:00:30.995Z,991.88
2019-05-09T10:01:30.891Z,991.89
2019-05-09T10:03:23.595Z,991.98
2019-05-09T10:04:24.499Z,991.95
2019-05-09T10:06:16.209Z,991.96
2019-05-09T10:07:16.081Z,991.96
2019-05-09T10:09:09.352Z,991.91
2019-05-09T10:10:08.641Z,991.91
2019-05-09T10:12:01.865Z,991.85
2019-05-09T10:13:04.029Z,991.90
2019-05-09T10:14:54.396Z,991.87
2019-05-09T10:15:54.314Z,991.88
2019-05-09T10:17:47.679Z,991.91
2019-05-09T10:18:46.877Z,991.93
2019-05-09T10:20:39.570Z,991.81
2019-05-09T10:21:39.461Z,991.79
2019-05-09T10:23:32.152Z,991.74
2019-05-09T10:24:32.033Z,991.75
2019-05-09T10:26:25.207Z,991.75
2019-05-09T10:27:25.106Z,991.76
2019-05-09T10:29:17.837Z,991.81
2019-05-09T10:30:18.098Z,991.77
2019-05-09T10:32:10.375Z,991.80
2019-05-09T10:33:10.265Z,991.80
2019-05-09T10:35:03.467Z,991.79
2019-05-09T10:36:04.867Z,991.81
2019-05-09T10:37:58.662Z,991.86
2019-05-09T10:38:58.218Z,991.89
2019-05-09T10:40:48.919Z,991.88
2019-05-09T10:41:48.510Z,991.92
2019-05-09T10:43:41.219Z,991.92
2019-05-09T10:44:41.088Z,991.91
2019-05-09T10:46:52.107Z,991.89
2019-05-09T10:47:33.670Z,992.00
2019-05-09T10:49:26.370Z,992.00
2019-05-09T10:50:32.840Z,992.01
2019-05-09T10:52:18.939Z,991.91
2019-05-09T10:53:18.844Z,991.88
2019-05-09T10:55:11.567Z,991.90
2019-05-09T10:56:11.441Z,991.91
2019-05-09T10:58:04.117Z,991.94
2019-05-09T10:59:04.019Z,991.90
2019-05-09T11:00:58.717Z,991.89
2019-05-09T11:01:58.026Z,991.87
2019-05-09T11:03:49.296Z,991.82
2019-05-09T11:04:49.284Z,991.79
2019-05-09T11:06:41.888Z,991.78
2019-05-09T11:07:41.775Z,991.76
2019-05-09T11:09:34.468Z,991.81
2019-05-09T11:10:34.348Z,991.78
2019-05-09T11:12:27.673Z,991.87
2019-05-09T11:13:28.746Z,991.93
2019-05-09T11:15:19.632Z,991.89
2019-05-09T11:16:19.519Z,991.89
2019-05-09T11:18:12.202Z,991.83
2019-05-09T11:19:12.105Z,991.78
2019-05-09T11:21:04.802Z,991.76
2019-05-09T11:22:04.696Z,991.74
2019-05-09T11:23:58.289Z,991.79
2019-05-09T11:24:57.992Z,991.79
2019-05-09T11:26:49.967Z,991.81
2019-05-09T11:28:06.719Z,991.80
2019-05-09T11:29:43.546Z,991.82
2019-05-09T11:30:42.433Z,991.82
2019-05-09T11:32:35.155Z,991.84
2019-05-09T11:33:35.017Z,991.81
2019-05-09T11:35:27.718Z,991.90
2019-05-09T11:36:27.595Z,991.95
2019-05-09T11:38:32.621Z,991.90
2019-05-09T11:39:35.501Z,991.92
2019-05-09T11:41:13.378Z,991.88
2019-05-09T11:42:13.262Z,991.89
2019-05-09T11:44:08.619Z,991.86
2019-05-09T11:45:07.647Z,991.90
2019-05-09T11:46:58.556Z,991.87
2019-05-09T11:47:58.532Z,991.92
2019-05-09T11:49:51.111Z,991.96
2019-05-09T11:50:51.010Z,991.98
2019-05-09T11:52:43.714Z,991.95
2019-05-09T11:53:43.594Z,992.04
2019-05-09T11:55:42.414Z,992.07
2019-05-09T11:56:38.192Z,992.02
2019-05-09T11:58:28.886Z,991.93
2019-05-09T11:59:28.826Z,991.91
2019-05-09T12:01:21.440Z,991.98
2019-05-09T12:02:21.333Z,991.97
2019-05-09T12:04:14.041Z,991.93
2019-05-09T12:05:13.922Z,991.96
2019-05-09T12:07:07.948Z,991.96
2019-05-09T12:08:08.441Z,991.95
2019-05-09T12:09:59.219Z,991.95
2019-05-09T12:10:59.102Z,991.91
2019-05-09T12:12:51.787Z,991.99
2019-05-09T12:13:51.687Z,991.96
2019-05-09T12:15:44.385Z,991.90
2019-05-09T12:16:44.263Z,991.95
2019-05-09T12:18:37.806Z,991.96
2019-05-09T12:19:38.042Z,992.00
2019-05-09T12:21:29.543Z,992.06
2019-05-09T12:22:29.442Z,992.05
2019-05-09T12:24:22.600Z,992.10
2019-05-09T12:25:22.500Z,992.08
2019-05-09T12:27:15.210Z,992.06
2019-05-09T12:28:15.100Z,992.09
2019-05-09T12:30:07.772Z,992.09
2019-05-09T12:31:07.938Z,992.12
2019-05-09T12:33:00.368Z,992.10
2019-05-09T12:34:00.247Z,992.12
2019-05-09T12:35:52.944Z,992.10
2019-05-09T12:36:52.827Z,992.14
2019-05-09T12:38:48.873Z,992.23
2019-05-09T12:39:47.826Z,992.24
2019-05-09T12:41:38.595Z,992.20
2019-05-09T12:42:39.273Z,992.22
2019-05-09T12:44:30.687Z,992.20
2019-05-09T12:45:30.585Z,992.24
2019-05-09T12:47:23.283Z,992.24
2019-05-09T12:48:23.166Z,992.21
2019-05-09T12:50:18.548Z,992.25
2019-05-09T12:51:18.207Z,992.22
2019-05-09T12:53:08.450Z,992.25
2019-05-09T12:54:08.788Z,992.33
2019-05-09T12:56:01.113Z,992.30
2019-05-09T12:57:00.922Z,992.31
2019-05-09T12:58:53.615Z,992.35
2019-05-09T12:59:53.535Z,992.31
2019-05-09T13:01:48.882Z,992.36
2019-05-09T13:02:46.100Z,992.34
2019-05-09T13:04:39.299Z,992.36
2019-05-09T13:05:39.189Z,992.33
2019-05-09T13:07:31.877Z,992.37
2019-05-09T13:08:31.771Z,992.39
2019-05-09T13:10:24.486Z,992.37
2019-05-09T13:11:24.361Z,992.37
2019-05-09T13:13:18.649Z,992.36
2019-05-09T13:14:19.294Z,992.39
2019-05-09T13:16:13.796Z,992.37
2019-05-09T13:17:10.025Z,992.38
2019-05-09T13:19:02.871Z,992.35
2019-05-09T13:20:02.612Z,992.36
2019-05-09T13:21:55.358Z,992.36
2019-05-09T13:22:55.196Z,992.43
2019-05-09T13:24:47.960Z,992.42
2019-05-09T13:25:50.364Z,992.40
2019-05-09T13:27:40.491Z,992.39
2019-05-09T13:28:40.372Z,992.37
2019-05-09T13:30:33.085Z,992.41
2019-05-09T13:31:34.808Z,992.46
2019-05-09T13:33:25.650Z,992.37
2019-05-09T13:34:28.190Z,992.35
2019-05-09T13:36:18.997Z,992.37
2019-05-09T13:37:18.872Z,992.33
2019-05-09T13:39:10.915Z,992.38
2019-05-09T13:40:10.740Z,992.37
2019-05-09T13:42:03.422Z,992.38
2019-05-09T13:43:03.306Z,992.39
2019-05-09T13:44:55.992Z,992.39
2019-05-09T13:45:55.891Z,992.38
2019-05-09T13:47:49.705Z,992.33
2019-05-09T13:49:06.389Z,992.35
2019-05-09T13:50:41.331Z,992.39
2019-05-09T13:51:48.557Z,992.40
2019-05-09T13:53:33.775Z,992.39
2019-05-09T13:54:33.667Z,992.42
2019-05-09T13:56:27.993Z,992.42
2019-05-09T13:57:27.716Z,992.40
2019-05-09T13:59:18.950Z,992.43
2019-05-09T14:00:18.858Z,992.47
2019-05-09T14:02:11.546Z,992.45
2019-05-09T14:03:11.425Z,992.47
2019-05-09T14:05:05.129Z,992.44
2019-05-09T14:06:05.002Z,992.45
2019-05-09T14:08:03.346Z,992.50
2019-05-09T14:08:59.816Z,992.50
2019-05-09T14:10:50.271Z,992.51
2019-05-09T14:11:50.168Z,992.53
2019-05-09T14:13:42.933Z,992.54
2019-05-09T14:14:42.746Z,992.62
2019-05-09T14:16:35.437Z,992.60
2019-05-09T14:17:48.154Z,992.68
2019-05-09T14:19:39.579Z,992.71
2019-05-09T14:20:27.912Z,992.74
2019-05-09T14:22:21.129Z,992.77
2019-05-09T14:23:21.001Z,992.73
2019-05-09T14:25:13.696Z,992.78
2019-05-09T14:26:13.580Z,992.76
2019-05-09T14:28:08.575Z,992.80
2019-05-09T14:29:06.171Z,992.84
2019-05-09T14:30:59.434Z,992.81
2019-05-09T14:31:58.742Z,992.81
2019-05-09T14:33:51.437Z,992.87
2019-05-09T14:34:51.317Z,992.85
2019-05-09T14:36:45.618Z,992.88
2019-05-09T14:37:43.903Z,992.92
2019-05-09T14:39:39.915Z,992.88
2019-05-09T14:40:38.674Z,992.92
2019-05-09T14:42:30.155Z,992.94
2019-05-09T14:43:30.051Z,992.96
2019-05-09T14:45:22.748Z,992.96
2019-05-09T14:46:22.631Z,992.96
2019-05-09T14:48:15.315Z,992.98
2019-05-09T14:49:17.463Z,992.98
2019-05-09T14:51:07.911Z,992.99
2019-05-09T14:52:08.187Z,992.97
2019-05-09T14:54:00.510Z,993.00
2019-05-09T14:55:00.365Z,993.00
2019-05-09T14:56:53.154Z,993.01
2019-05-09T14:57:52.996Z,992.98
2019-05-09T14:59:45.637Z,993.02
2019-05-09T15:00:47.936Z,993.05
2019-05-09T15:02:39.051Z,993.05
2019-05-09T15:03:38.951Z,993.01
2019-05-09T15:05:30.798Z,993.04
2019-05-09T15:06:30.677Z,993.01
2019-05-09T15:08:23.842Z,993.02
2019-05-09T15:09:23.748Z,993.04
2019-05-09T15:11:18.180Z,993.08
2019-05-09T15:12:18.453Z,993.09
2019-05-09T15:14:09.000Z,993.07
2019-05-09T15:15:08.897Z,993.11
2019-05-09T15:17:01.604Z,993.13
2019-05-09T15:18:01.488Z,993.11
2019-05-09T15:19:59.954Z,993.12
2019-05-09T15:20:54.062Z,993.14
2019-05-09T15:22:47.881Z,993.12
2019-05-09T15:23:48.141Z,993.15
2019-05-09T15:25:39.368Z,993.15
2019-05-09T15:26:39.239Z,993.15
2019-05-09T15:28:31.926Z,993.14
2019-05-09T15:29:31.815Z,993.14
2019-05-09T15:31:24.517Z,993.10
2019-05-09T15:32:24.397Z,993.12
2019-05-09T15:34:18.530Z,993.08
2019-05-09T15:35:18.318Z,993.13
2019-05-09T15:37:09.915Z,993.12
2019-05-09T15:38:09.793Z,993.17
2019-05-09T15:40:02.462Z,993.11
2019-05-09T15:41:02.387Z,993.12
2019-05-09T15:42:55.062Z,993.14
2019-05-09T15:43:57.753Z,993.15
2019-05-09T15:45:47.661Z,993.13
2019-05-09T15:46:47.516Z,993.12
2019-05-09T15:48:40.244Z,993.21
2019-05-09T15:49:40.137Z,993.16
2019-05-09T15:51:32.815Z,993.16
2019-05-09T15:52:32.683Z,993.16
2019-05-09T15:54:25.360Z,993.22
2019-05-09T15:55:25.258Z,993.20
2019-05-09T15:57:17.945Z,993.23
2019-05-09T15:58:18.864Z,993.22
2019-05-09T16:00:10.515Z,993.26
2019-05-09T16:01:10.405Z,993.20
2019-05-09T16:03:03.105Z,993.22
2019-05-09T16:04:02.990Z,993.23
2019-05-09T16:05:58.469Z,993.21
2019-05-09T16:06:56.065Z,993.26
2019-05-09T16:08:48.756Z,993.26
2019-05-09T16:09:48.635Z,993.26
2019-05-09T16:11:41.352Z,993.26
2019-05-09T16:12:41.260Z,993.22
2019-05-09T16:14:34.070Z,993.30
2019-05-09T16:15:33.957Z,993.27
2019-05-09T16:17:28.561Z,993.33
2019-05-09T16:18:28.822Z,993.32
2019-05-09T16:20:36.270Z,993.35
2019-05-09T16:21:20.626Z,993.33
2019-05-09T16:23:13.329Z,993.35
2019-05-09T16:24:13.205Z,993.34
2019-05-09T16:26:07.794Z,993.34
2019-05-09T16:27:08.289Z,993.39
2019-05-09T16:28:58.498Z,993.42
2019-05-09T16:29:58.388Z,993.40
2019-05-09T16:31:51.058Z,993.42
2019-05-09T16:32:50.954Z,993.47
2019-05-09T16:35:43.546Z,993.38
2019-05-09T16:37:56.754Z,993.39
2019-05-09T16:38:45.099Z,993.38
2019-05-09T16:40:28.832Z,993.33
2019-05-09T16:41:28.722Z,993.40
2019-05-09T16:43:22.256Z,993.36
2019-05-09T16:44:21.348Z,993.34
2019-05-09T16:46:14.520Z,993.33
2019-05-09T16:47:14.441Z,993.34
2019-05-09T16:49:11.734Z,993.41
2019-05-09T16:50:10.023Z,993.40
2019-05-09T16:51:59.679Z,993.40
2019-05-09T16:52:59.556Z,993.41
2019-05-09T16:54:53.240Z,993.41
2019-05-09T16:55:53.134Z,993.38
2019-05-09T16:57:45.831Z,993.39
2019-05-09T16:58:45.706Z,993.42
2019-05-09T17:00:38.406Z,993.35
2019-05-09T17:01:39.369Z,993.34
2019-05-09T17:03:31.028Z,993.34
2019-05-09T17:04:30.864Z,993.32
2019-05-09T17:06:23.575Z,993.39
2019-05-09T17:07:23.450Z,993.40
2019-05-09T17:09:18.117Z,993.42
2019-05-09T17:10:17.719Z,993.42
2019-05-09T17:12:08.765Z,993.43
2019-05-09T17:13:08.624Z,993.42
2019-05-09T17:15:01.348Z,993.47
2019-05-09T17:16:01.198Z,993.45
2019-05-09T17:17:53.897Z,993.48
2019-05-09T17:18:53.775Z,993.44
2019-05-09T17:20:47.807Z,993.48
2019-05-09T17:21:48.054Z,993.47
2019-05-09T17:23:39.261Z,993.48
2019-05-09T17:24:39.140Z,993.50
2019-05-09T17:26:31.816Z,993.60
2019-05-09T17:27:31.712Z,993.65
2019-05-09T17:29:24.413Z,993.68
2019-05-09T17:30:24.298Z,993.70
2019-05-09T17:32:18.318Z,993.72
2019-05-09T17:33:16.871Z,993.69
2019-05-09T17:35:09.557Z,993.74
2019-05-09T17:36:09.437Z,993.76
2019-05-09T17:38:02.117Z,993.78
2019-05-09T17:39:02.016Z,993.76
2019-05-09T17:40:54.722Z,993.82
2019-05-09T17:41:54.586Z,993.76
2019-05-09T17:43:47.559Z,993.75
2019-05-09T17:44:48.811Z,993.76
2019-05-09T17:46:39.868Z,993.75
2019-05-09T17:47:39.749Z,993.75
2019-05-09T17:49:32.424Z,993.74
2019-05-09T17:50:32.340Z,993.74
2019-05-09T17:52:25.055Z,993.74
2019-05-09T17:53:24.935Z,993.74
2019-05-09T17:55:18.337Z,993.79
2019-05-09T17:56:17.511Z,993.78
2019-05-09T17:58:24.977Z,993.85
2019-05-09T17:59:10.084Z,993.85
2019-05-09T18:01:03.294Z,993.84
2019-05-09T18:02:03.160Z,993.87
2019-05-09T18:03:59.056Z,993.93
2019-05-09T18:04:58.237Z,993.94
2019-05-09T18:06:49.445Z,993.99
2019-05-09T18:07:49.312Z,993.99
2019-05-09T18:09:41.989Z,994.03
2019-05-09T18:10:41.884Z,994.04
2019-05-09T18:12:34.576Z,994.00
2019-05-09T18:13:34.451Z,994.02
2019-05-09T18:15:28.244Z,994.09
2019-05-09T18:16:28.475Z,994.12
2019-05-09T18:18:19.725Z,994.09
2019-05-09T18:19:19.602Z,994.12
2019-05-09T18:21:12.280Z,994.15
2019-05-09T18:22:12.182Z,994.10
2019-05-09T18:24:04.870Z,994.08
2019-05-09T18:25:04.752Z,994.12
2019-05-09T18:26:58.224Z,994.11
2019-05-09T18:27:57.501Z,994.16
2019-05-09T18:29:50.009Z,994.13
2019-05-09T18:30:49.896Z,994.14
2019-05-09T18:32:42.596Z,994.18
2019-05-09T18:33:42.466Z,994.21
2019-05-09T18:35:35.155Z,994.23
2019-05-09T18:36:35.035Z,994.25
2019-05-09T18:38:28.176Z,994.24
2019-05-09T18:39:27.829Z,994.31
2019-05-09T18:41:20.306Z,994.30
2019-05-09T18:42:20.188Z,994.28
2019-05-09T18:44:12.877Z,994.27
2019-05-09T18:45:12.741Z,994.28
2019-05-09T18:47:07.635Z,994.30
2019-05-09T18:48:05.321Z,994.27
2019-05-09T18:49:58.515Z,994.29
2019-05-09T18:50:58.384Z,994.30
2019-05-09T18:52:51.067Z,994.32
2019-05-09T18:53:50.956Z,994.32
2019-05-09T18:55:43.661Z,994.36
2019-05-09T18:56:43.532Z,994.39
2019-05-09T18:58:36.585Z,994.37
2019-05-09T18:59:36.123Z,994.38
2019-05-09T19:01:28.802Z,994.39
2019-05-09T19:02:28.680Z,994.43
2019-05-09T19:04:21.381Z,994.44
2019-05-09T19:05:21.260Z,994.49
2019-05-09T19:07:22.221Z,994.50
2019-05-09T19:08:13.825Z,994.49
2019-05-09T19:10:06.500Z,994.54
2019-05-09T19:11:06.392Z,994.54
2019-05-09T19:12:59.087Z,994.58
2019-05-09T19:13:59.265Z,994.56
2019-05-09T19:15:51.676Z,994.60
2019-05-09T19:16:51.543Z,994.59
2019-05-09T19:18:44.229Z,994.64
2019-05-09T19:19:44.109Z,994.63
2019-05-09T19:21:36.777Z,994.66
2019-05-09T19:22:36.684Z,994.76
2019-05-09T19:24:29.881Z,994.73
2019-05-09T19:25:29.740Z,994.76
2019-05-09T19:27:22.424Z,994.80
2019-05-09T19:28:24.303Z,994.80
2019-05-09T19:30:15.006Z,994.83
2019-05-09T19:31:14.886Z,994.87
2019-05-09T19:33:07.564Z,994.85
2019-05-09T19:34:07.454Z,994.82
2019-05-09T19:36:00.165Z,994.87
2019-05-09T19:37:00.027Z,994.87
2019-05-09T19:38:52.699Z,994.94
2019-05-09T19:39:52.597Z,994.94
2019-05-09T19:41:45.290Z,994.94
2019-05-09T19:42:45.171Z,995.01
2019-05-09T19:44:37.839Z,995.00
2019-05-09T19:45:37.734Z,995.00
2019-05-09T19:47:30.448Z,995.00
2019-05-09T19:48:30.302Z,995.00
2019-05-09T19:50:22.987Z,995.02
2019-05-09T19:51:22.879Z,994.99
2019-05-09T19:53:15.577Z,994.99
2019-05-09T19:54:15.442Z,995.01
2019-05-09T19:56:08.121Z,995.00
2019-05-09T19:57:08.343Z,994.99
2019-05-09T19:59:00.755Z,995.01
2019-05-09T20:00:00.591Z,995.05
2019-05-09T20:01:53.289Z,995.00
2019-05-09T20:02:53.446Z,995.03
2019-05-09T20:04:46.352Z,995.03
2019-05-09T20:05:46.238Z,995.05
2019-05-09T20:07:39.098Z,995.08
2019-05-09T20:08:38.980Z,995.09
2019-05-09T20:10:31.646Z,995.13
2019-05-09T20:11:33.285Z,995.13
2019-05-09T20:13:24.233Z,995.21
2019-05-09T20:14:24.129Z,995.28
2019-05-09T20:16:21.163Z,995.33
2019-05-09T20:17:17.112Z,995.35
2019-05-09T20:19:10.671Z,995.48
2019-05-09T20:20:10.523Z,995.48
2019-05-09T20:22:03.938Z,995.52
2019-05-09T20:23:03.828Z,995.53
2019-05-09T20:24:56.544Z,995.53
2019-05-09T20:25:56.416Z,995.60
2019-05-09T20:28:49.560Z,995.65
2019-05-09T20:30:42.189Z,995.64
2019-05-09T20:31:42.045Z,995.66
2019-05-09T20:33:35.011Z,995.69
2019-05-09T20:34:35.210Z,995.69
2019-05-09T20:36:27.460Z,995.75
2019-05-09T20:37:27.532Z,995.73
2019-05-09T20:39:19.886Z,995.73
2019-05-09T20:40:19.796Z,995.74
2019-05-09T20:42:12.466Z,995.72
2019-05-09T20:43:12.357Z,995.73
2019-05-09T20:45:05.063Z,995.78
2019-05-09T20:46:04.953Z,995.82
2019-05-09T20:47:57.618Z,995.82
2019-05-09T20:48:57.509Z,995.86
2019-05-09T20:50:50.254Z,995.83
2019-05-09T20:51:50.083Z,995.84
2019-05-09T20:53:42.778Z,995.88
2019-05-09T20:54:42.672Z,995.85
2019-05-09T20:56:35.373Z,995.86
2019-05-09T20:57:35.244Z,995.87
2019-05-09T20:59:27.924Z,995.92
2019-05-09T21:00:27.819Z,995.93
2019-05-09T21:02:20.621Z,995.93
2019-05-09T21:03:20.386Z,995.94
2019-05-09T21:05:13.066Z,996.00
2019-05-09T21:06:12.962Z,995.99
2019-05-09T21:08:05.647Z,996.04
2019-05-09T21:09:05.527Z,996.05
2019-05-09T21:10:58.262Z,996.11
2019-05-09T21:11:58.113Z,996.10
2019-05-09T21:13:50.809Z,996.14
2019-05-09T21:14:50.679Z,996.12
2019-05-09T21:16:43.350Z,996.16
2019-05-09T21:17:43.240Z,996.15
2019-05-09T21:19:35.967Z,996.21
2019-05-09T21:20:35.838Z,996.20
2019-05-09T21:22:30.080Z,996.26
2019-05-09T21:23:29.908Z,996.22
2019-05-09T21:25:23.277Z,996.28
2019-05-09T21:26:22.982Z,996.26
2019-05-09T21:28:15.687Z,996.32
2019-05-09T21:29:15.547Z,996.35
2019-05-09T21:31:08.725Z,996.44
2019-05-09T21:32:08.639Z,996.41
2019-05-09T21:34:01.312Z,996.45
2019-05-09T21:35:01.185Z,996.43
2019-05-09T21:36:53.870Z,996.48
2019-05-09T21:37:53.761Z,996.48
2019-05-09T21:39:46.451Z,996.52
2019-05-09T21:40:46.328Z,996.51
2019-05-09T21:42:39.008Z,996.51
2019-05-09T21:43:38.895Z,996.49
2019-05-09T21:45:32.080Z,996.57
2019-05-09T21:46:31.955Z,996.55
2019-05-09T21:48:24.620Z,996.59
2019-05-09T21:49:24.524Z,996.64
2019-05-09T21:51:17.704Z,996.57
2019-05-09T21:52:17.579Z,996.57
2019-05-09T21:54:10.258Z,996.62
2019-05-09T21:55:10.148Z,996.62
2019-05-09T21:57:02.867Z,996.66
2019-05-09T21:58:02.734Z,996.69
2019-05-09T21:59:55.391Z,996.74
